Time;durP1;ratioP1;P1;durP2;ratioP2;P2;SDS_P1;SDS_P2;PMS_P1;PMS_P2;Temp;Humidity;BMP_temperature;BMP_pressure;BME280_temperature;BME280_humidity;BME280_pressure;Samples;Min_cycle;Max_cycle;Signal;HPM_P1;HPM_P2
2022/07/13 00:01:53;;;;;;;1.17;0.80;;;18.40;99.90;;;;;;5053218;28;20674;-67
2022/07/13 00:04:20;;;;;;;1.23;0.60;;;18.40;99.90;;;;;;5051875;28;20672;-67
2022/07/13 00:06:47;;;;;;;0.85;0.60;;;18.40;99.90;;;;;;5053683;28;20259;-67
2022/07/13 00:09:13;;;;;;;1.10;0.80;;;18.40;99.90;;;;;;5050380;28;20205;-67
2022/07/13 00:11:40;;;;;;;2.45;0.90;;;18.40;99.90;;;;;;5052858;28;20214;-66
2022/07/13 00:14:08;;;;;;;4.03;1.13;;;18.30;99.90;;;;;;5052812;28;20213;-68
2022/07/13 00:16:35;;;;;;;2.15;0.95;;;18.30;99.90;;;;;;5051277;28;20649;-67
2022/07/13 00:19:02;;;;;;;1.02;0.95;;;18.30;99.90;;;;;;5050889;28;20210;-67
2022/07/13 00:21:28;;;;;;;2.63;0.88;;;18.30;99.90;;;;;;5046159;28;20209;-67
2022/07/13 00:23:55;;;;;;;1.95;1.00;;;18.30;99.90;;;;;;5047389;28;20221;-66
2022/07/13 00:26:22;;;;;;;2.58;0.82;;;18.30;99.90;;;;;;5039981;28;20229;-66
2022/07/13 00:28:48;;;;;;;3.83;1.10;;;18.30;99.90;;;;;;5053124;28;20561;-67
2022/07/13 00:31:17;;;;;;;2.03;0.65;;;18.20;99.90;;;;;;5050824;28;20222;-67
2022/07/13 00:33:43;;;;;;;5.35;1.23;;;18.20;99.90;;;;;;5042789;28;20211;-67
2022/07/13 00:36:10;;;;;;;2.35;0.75;;;18.20;99.90;;;;;;5042763;28;20221;-66
2022/07/13 00:38:37;;;;;;;1.88;0.85;;;18.20;99.90;;;;;;5051782;28;20197;-67
2022/07/13 00:41:05;;;;;;;1.02;0.90;;;18.20;99.90;;;;;;5049593;28;20646;-67
2022/07/13 00:43:31;;;;;;;2.03;1.20;;;18.10;99.90;;;;;;5053183;28;20217;-66
2022/07/13 00:45:58;;;;;;;1.92;1.02;;;18.10;99.90;;;;;;5052388;28;20234;-66
2022/07/13 00:48:27;;;;;;;2.90;0.97;;;18.00;99.90;;;;;;5049880;28;20210;-67
2022/07/13 00:50:55;;;;;;;0.83;0.83;;;18.00;99.90;;;;;;5033607;28;20233;-67
2022/07/13 00:53:23;;;;;;;1.50;0.93;;;18.00;99.90;;;;;;5036385;28;20210;-67
2022/07/13 00:55:50;;;;;;;3.07;1.00;;;17.90;99.90;;;;;;5054135;28;20205;-67
2022/07/13 00:58:17;;;;;;;1.58;1.00;;;17.90;99.90;;;;;;5055735;28;20206;-66
2022/07/13 01:00:43;;;;;;;3.70;1.30;;;17.80;99.90;;;;;;5050621;28;20647;-69
2022/07/13 01:03:10;;;;;;;2.33;1.27;;;17.80;99.90;;;;;;5046914;28;20206;-69
2022/07/13 01:05:38;;;;;;;1.87;1.30;;;17.80;99.90;;;;;;5055906;28;20206;-69
2022/07/13 01:08:06;;;;;;;1.40;1.13;;;17.70;99.90;;;;;;5056082;28;20233;-68
2022/07/13 01:10:33;;;;;;;3.77;1.10;;;17.70;99.90;;;;;;5052658;28;20233;-69
2022/07/13 01:13:00;;;;;;;2.33;1.10;;;17.60;99.90;;;;;;5055630;28;20206;-69
2022/07/13 01:15:27;;;;;;;3.90;1.30;;;17.60;99.90;;;;;;5041947;28;20681;-69
2022/07/13 01:17:55;;;;;;;2.33;1.10;;;17.60;99.90;;;;;;5054915;28;20205;-68
2022/07/13 01:20:23;;;;;;;1.45;1.23;;;17.60;99.90;;;;;;5048583;28;20237;-69
2022/07/13 01:22:53;;;;;;;2.17;1.20;;;17.60;99.90;;;;;;5055730;28;20236;-69
2022/07/13 01:25:22;;;;;;;2.13;1.17;;;17.60;99.90;;;;;;5043932;28;20261;-68
2022/07/13 01:27:49;;;;;;;1.53;1.10;;;17.60;99.90;;;;;;5047437;28;20225;-68
2022/07/13 01:30:16;;;;;;;1.80;1.20;;;17.60;99.90;;;;;;5055773;28;20689;-69
2022/07/13 01:32:45;;;;;;;2.80;1.13;;;17.50;99.90;;;;;;5052346;28;20210;-68
2022/07/13 01:35:12;;;;;;;1.60;1.07;;;17.50;99.90;;;;;;5054858;28;20646;-69
2022/07/13 01:37:39;;;;;;;4.53;1.47;;;17.50;99.90;;;;;;5055647;28;20208;-68
2022/07/13 01:40:08;;;;;;;1.45;1.15;;;17.50;99.90;;;;;;5055617;28;20566;-69
2022/07/13 01:42:41;;;;;;;1.50;1.40;;;17.50;99.90;;;;;;5054394;28;20214;-69
2022/07/13 01:45:09;;;;;;;1.53;1.30;;;17.50;99.90;;;;;;5053674;28;20234;-69
2022/07/13 01:47:38;;;;;;;1.73;1.17;;;17.50;99.90;;;;;;5055013;28;20206;-69
2022/07/13 01:50:06;;;;;;;2.00;1.13;;;17.50;99.90;;;;;;5052129;28;20233;-69
2022/07/13 01:52:33;;;;;;;2.33;1.27;;;17.50;99.90;;;;;;5053801;28;20300;-69
2022/07/13 01:55:00;;;;;;;2.50;1.35;;;17.50;99.90;;;;;;5055268;28;20248;-69
2022/07/13 01:57:27;;;;;;;2.40;1.37;;;17.50;99.90;;;;;;5055366;28;20210;-69
2022/07/13 01:59:58;;;;;;;2.97;1.40;;;17.50;99.90;;;;;;5053881;28;20213;-68
2022/07/13 02:02:25;;;;;;;1.33;1.20;;;17.50;99.90;;;;;;5054019;28;20198;-68
2022/07/13 02:04:54;;;;;;;4.00;1.80;;;17.50;99.90;;;;;;5055605;28;20221;-69
2022/07/13 02:07:21;;;;;;;2.30;1.27;;;17.50;99.90;;;;;;5055484;28;20268;-69
2022/07/13 02:09:48;;;;;;;2.25;1.20;;;17.50;99.90;;;;;;5055173;28;20654;-68
2022/07/13 02:12:15;;;;;;;2.20;1.37;;;17.40;99.90;;;;;;5054255;28;20186;-68
2022/07/13 02:14:42;;;;;;;2.92;1.40;;;17.40;99.90;;;;;;5055368;28;20658;-69
2022/07/13 02:17:10;;;;;;;2.57;1.37;;;17.40;99.90;;;;;;5052648;28;20210;-69
2022/07/13 02:19:37;;;;;;;1.80;1.40;;;17.40;99.90;;;;;;5052862;28;20206;-68
2022/07/13 02:22:04;;;;;;;2.42;1.77;;;17.40;99.90;;;;;;5046649;28;20661;-69
2022/07/13 02:24:30;;;;;;;1.85;1.30;;;17.30;99.90;;;;;;5053321;28;20213;-69
2022/07/13 02:26:57;;;;;;;2.20;1.60;;;17.30;99.90;;;;;;5054162;28;20563;-68
2022/07/13 02:29:24;;;;;;;1.63;1.40;;;17.30;99.90;;;;;;5054142;28;20209;-69
2022/07/13 02:31:51;;;;;;;1.98;1.50;;;17.30;99.90;;;;;;5051764;28;20678;-69
2022/07/13 02:34:19;;;;;;;3.17;1.40;;;17.30;99.90;;;;;;5053070;28;20217;-69
2022/07/13 02:36:46;;;;;;;2.33;1.60;;;17.30;99.90;;;;;;5054044;28;20249;-69
2022/07/13 02:39:12;;;;;;;5.20;1.43;;;17.30;99.90;;;;;;5054433;28;20220;-69
2022/07/13 02:41:39;;;;;;;5.47;1.60;;;17.30;99.90;;;;;;5038196;28;20202;-69
2022/07/13 02:44:06;;;;;;;3.53;1.43;;;17.30;99.90;;;;;;5052849;28;20210;-69
2022/07/13 02:46:32;;;;;;;2.43;1.50;;;17.30;99.90;;;;;;5053192;28;20249;-69
2022/07/13 02:48:59;;;;;;;1.93;1.57;;;17.30;99.90;;;;;;5054334;28;20206;-68
2022/07/13 02:51:27;;;;;;;2.90;1.40;;;17.30;99.90;;;;;;5053715;28;20226;-67
2022/07/13 02:53:54;;;;;;;3.13;1.40;;;17.20;99.90;;;;;;5048672;28;20210;-68
2022/07/13 02:56:21;;;;;;;1.70;1.30;;;17.30;99.90;;;;;;5052962;28;20217;-68
2022/07/13 02:58:47;;;;;;;1.93;1.50;;;17.30;99.90;;;;;;5053172;28;20673;-68
2022/07/13 03:01:14;;;;;;;3.00;1.40;;;17.20;99.90;;;;;;5044910;28;20612;-68
2022/07/13 03:03:41;;;;;;;1.37;1.23;;;17.20;99.90;;;;;;5046741;28;20687;-68
2022/07/13 03:06:08;;;;;;;4.23;1.20;;;17.30;99.90;;;;;;5053646;28;20202;-69
2022/07/13 03:08:36;;;;;;;2.90;1.83;;;17.20;99.90;;;;;;5053610;28;20210;-68
2022/07/13 03:11:04;;;;;;;2.87;1.80;;;17.20;99.90;;;;;;5052182;28;20577;-69
2022/07/13 03:13:31;;;;;;;3.03;1.60;;;17.20;99.90;;;;;;5052402;28;20741;-69
2022/07/13 03:15:57;;;;;;;3.63;1.70;;;17.30;99.90;;;;;;5053109;28;20573;-69
2022/07/13 03:18:24;;;;;;;1.40;1.30;;;17.20;99.90;;;;;;5053084;28;20210;-68
2022/07/13 03:20:51;;;;;;;3.07;1.80;;;17.20;99.90;;;;;;5047866;28;20213;-69
2022/07/13 03:23:18;;;;;;;1.70;1.20;;;17.20;99.90;;;;;;5053430;28;20623;-69
2022/07/13 03:25:46;;;;;;;2.77;1.70;;;17.20;99.90;;;;;;5050602;28;20228;-68
2022/07/13 03:28:13;;;;;;;1.57;1.43;;;17.30;99.90;;;;;;5053028;28;20209;-69
2022/07/13 03:30:40;;;;;;;2.73;1.40;;;17.30;99.90;;;;;;5046748;28;20262;-69
2022/07/13 03:33:06;;;;;;;2.30;1.60;;;17.30;99.90;;;;;;5051496;28;20677;-68
2022/07/13 03:35:33;;;;;;;2.47;1.37;;;17.30;99.90;;;;;;5052034;28;20271;-69
2022/07/13 03:38:00;;;;;;;1.97;1.67;;;17.30;99.90;;;;;;5052445;28;20206;-69
2022/07/13 03:40:27;;;;;;;4.03;1.63;;;17.30;99.90;;;;;;5052684;28;20658;-68
2022/07/13 03:42:55;;;;;;;2.53;1.27;;;17.30;99.90;;;;;;5051763;28;20245;-69
2022/07/13 03:45:22;;;;;;;2.03;1.40;;;17.30;99.90;;;;;;5047384;28;20202;-69
2022/07/13 03:47:48;;;;;;;2.75;1.20;;;17.30;99.90;;;;;;5052374;28;20581;-69
2022/07/13 03:50:15;;;;;;;1.50;1.33;;;17.30;99.90;;;;;;5050307;28;20206;-68
2022/07/13 03:52:42;;;;;;;1.57;1.27;;;17.30;99.90;;;;;;5042146;28;20221;-69
2022/07/13 03:55:09;;;;;;;1.50;1.40;;;17.30;99.90;;;;;;5051970;28;20208;-69
2022/07/13 03:57:36;;;;;;;2.67;1.40;;;17.30;99.90;;;;;;5052827;28;20206;-70
2022/07/13 04:00:05;;;;;;;2.67;1.13;;;17.30;99.90;;;;;;5052095;28;20220;-69
2022/07/13 04:02:31;;;;;;;3.00;1.60;;;17.30;99.90;;;;;;5038424;28;20205;-68
2022/07/13 04:04:58;;;;;;;3.37;1.63;;;17.40;99.90;;;;;;5051223;28;20665;-69
2022/07/13 04:07:25;;;;;;;1.38;1.20;;;17.40;99.90;;;;;;5051144;28;20222;-68
2022/07/13 04:09:52;;;;;;;1.40;1.13;;;17.40;99.90;;;;;;5046772;28;20203;-68
2022/07/13 04:12:21;;;;;;;2.33;1.33;;;17.40;99.90;;;;;;5034796;28;20230;-68
2022/07/13 04:14:48;;;;;;;1.57;1.33;;;17.40;99.90;;;;;;5052928;28;20217;-69
2022/07/13 04:17:16;;;;;;;1.30;1.20;;;17.40;99.90;;;;;;5041857;28;20211;-69
2022/07/13 04:19:42;;;;;;;2.07;1.30;;;17.40;99.90;;;;;;5051219;28;20206;-69
2022/07/13 04:22:09;;;;;;;3.00;1.13;;;17.40;99.90;;;;;;5046137;28;20650;-70
2022/07/13 04:24:36;;;;;;;1.43;1.23;;;17.40;99.90;;;;;;5052550;28;20222;-70
2022/07/13 04:27:03;;;;;;;1.83;1.70;;;17.40;99.90;;;;;;5051482;28;20206;-69
2022/07/13 04:29:29;;;;;;;2.08;1.25;;;17.40;99.90;;;;;;5055045;28;20206;-69
2022/07/13 04:31:56;;;;;;;3.33;1.63;;;17.40;99.90;;;;;;5055094;28;20229;-68
2022/07/13 04:34:24;;;;;;;1.53;1.37;;;17.40;99.90;;;;;;5055121;28;20206;-69
2022/07/13 04:36:51;;;;;;;1.87;1.10;;;17.40;99.90;;;;;;5055263;28;20257;-68
2022/07/13 04:39:18;;;;;;;5.50;1.47;;;17.40;99.90;;;;;;5056071;28;20209;-69
2022/07/13 04:41:46;;;;;;;1.47;1.37;;;17.40;99.90;;;;;;5041284;28;20647;-69
2022/07/13 04:44:12;;;;;;;1.10;1.00;;;17.40;99.90;;;;;;5056352;28;20213;-69
2022/07/13 04:46:39;;;;;;;1.60;1.15;;;17.40;99.90;;;;;;5053789;28;20305;-69
2022/07/13 04:49:06;;;;;;;1.03;0.93;;;17.50;99.90;;;;;;5055144;28;20202;-69
2022/07/13 04:51:35;;;;;;;3.47;1.40;;;17.50;99.90;;;;;;5055143;28;20229;-68
2022/07/13 04:54:02;;;;;;;2.97;1.20;;;17.50;99.90;;;;;;5056916;28;20293;-69
2022/07/13 04:56:29;;;;;;;2.30;1.13;;;17.60;99.90;;;;;;5055799;28;20209;-69
2022/07/13 04:58:58;;;;;;;2.40;1.40;;;17.60;99.90;;;;;;5054096;28;20202;-69
2022/07/13 05:01:25;;;;;;;3.50;1.30;;;17.60;99.90;;;;;;5054384;28;20209;-69
2022/07/13 05:03:52;;;;;;;2.13;1.23;;;17.70;99.90;;;;;;5056234;28;20677;-69
2022/07/13 05:06:19;;;;;;;3.00;1.30;;;17.70;99.90;;;;;;5050443;28;20204;-69
2022/07/13 05:08:47;;;;;;;2.23;1.57;;;17.70;99.90;;;;;;5055883;28;20213;-70
2022/07/13 05:11:13;;;;;;;2.63;1.40;;;17.70;99.90;;;;;;5056254;28;20577;-69
2022/07/13 05:13:40;;;;;;;2.87;1.00;;;17.70;99.90;;;;;;5055149;28;20206;-69
2022/07/13 05:16:07;;;;;;;2.40;1.10;;;17.70;99.90;;;;;;5056126;28;20232;-69
2022/07/13 05:18:34;;;;;;;2.47;1.40;;;17.70;99.90;;;;;;5054537;28;20234;-69
2022/07/13 05:21:01;;;;;;;1.97;1.33;;;17.70;99.90;;;;;;5055082;28;20206;-69
2022/07/13 05:23:28;;;;;;;8.63;1.80;;;17.70;99.90;;;;;;5054854;28;20206;-69
2022/07/13 05:25:56;;;;;;;1.63;1.20;;;17.70;99.90;;;;;;5055574;28;20226;-69
2022/07/13 05:28:23;;;;;;;1.47;1.10;;;17.70;99.90;;;;;;5055137;28;20577;-69
2022/07/13 05:30:50;;;;;;;2.35;1.05;;;17.70;99.90;;;;;;5054961;28;20217;-69
2022/07/13 05:33:19;;;;;;;3.43;1.20;;;17.80;99.90;;;;;;5041573;28;20219;-69
2022/07/13 05:35:46;;;;;;;2.25;1.08;;;17.80;99.90;;;;;;5045640;28;20244;-69
2022/07/13 05:38:13;;;;;;;2.17;1.40;;;17.80;99.90;;;;;;5055416;28;20205;-70
2022/07/13 05:40:40;;;;;;;1.53;1.23;;;17.80;99.90;;;;;;5048401;28;20548;-69
2022/07/13 05:43:11;;;;;;;1.92;1.13;;;17.80;99.90;;;;;;5056954;28;20213;-69
2022/07/13 05:45:38;;;;;;;1.63;0.90;;;17.90;99.90;;;;;;5038807;28;20234;-69
2022/07/13 05:48:05;;;;;;;1.60;1.10;;;17.90;99.90;;;;;;5047417;28;20605;-70
2022/07/13 05:50:31;;;;;;;1.17;1.10;;;17.90;99.90;;;;;;5041027;28;20216;-69
2022/07/13 05:52:58;;;;;;;1.40;1.30;;;17.90;99.90;;;;;;5054945;28;20226;-69
2022/07/13 05:55:25;;;;;;;2.25;1.08;;;17.90;99.90;;;;;;5052256;28;20678;-69
2022/07/13 05:57:52;;;;;;;3.13;1.20;;;18.00;99.90;;;;;;5049779;28;20206;-69
2022/07/13 06:00:20;;;;;;;3.55;1.92;;;18.00;99.90;;;;;;5053942;28;20229;-69
2022/07/13 06:02:46;;;;;;;2.63;1.30;;;18.10;99.90;;;;;;5053434;28;20202;-70
2022/07/13 06:05:13;;;;;;;2.53;1.30;;;18.20;99.90;;;;;;5055005;28;20221;-69
2022/07/13 06:07:40;;;;;;;4.93;1.40;;;18.30;99.90;;;;;;5039474;28;20260;-69
2022/07/13 06:10:08;;;;;;;1.00;0.90;;;18.40;99.90;;;;;;5054635;28;20213;-69
2022/07/13 06:12:35;;;;;;;2.05;1.08;;;18.50;99.90;;;;;;5052655;28;20270;-69
2022/07/13 06:15:02;;;;;;;3.35;1.27;;;18.60;99.90;;;;;;5053877;28;20210;-70
2022/07/13 06:17:30;;;;;;;2.35;1.25;;;18.70;99.90;;;;;;5038788;28;20206;-69
2022/07/13 06:19:57;;;;;;;2.05;1.08;;;18.80;99.90;;;;;;5051874;28;20569;-69
2022/07/13 06:22:23;;;;;;;1.80;1.17;;;18.90;99.90;;;;;;5050975;28;20228;-69
2022/07/13 06:24:50;;;;;;;3.30;1.13;;;18.90;99.90;;;;;;5055085;28;20546;-70
2022/07/13 06:27:17;;;;;;;2.65;0.90;;;19.00;99.90;;;;;;5054808;28;20213;-70
2022/07/13 06:29:44;;;;;;;2.38;1.30;;;19.10;99.90;;;;;;5048364;28;20206;-69
2022/07/13 06:32:11;;;;;;;2.22;1.10;;;19.20;99.90;;;;;;5042645;28;20281;-69
2022/07/13 06:34:39;;;;;;;1.92;0.90;;;19.30;99.90;;;;;;5050103;28;20198;-70
2022/07/13 06:37:07;;;;;;;1.95;1.23;;;19.50;99.90;;;;;;5046462;28;20222;-69
2022/07/13 06:39:34;;;;;;;1.40;0.90;;;19.70;99.90;;;;;;5046972;28;20255;-69
2022/07/13 06:42:00;;;;;;;0.80;0.80;;;19.90;99.90;;;;;;5046474;28;20226;-70
2022/07/13 06:44:27;;;;;;;3.22;0.90;;;20.10;99.90;;;;;;5051774;28;20214;-70
2022/07/13 06:46:54;;;;;;;1.52;0.98;;;20.20;99.90;;;;;;5045271;28;20237;-69
2022/07/13 06:49:21;;;;;;;1.23;0.90;;;20.20;99.90;;;;;;5042613;28;20214;-70
2022/07/13 06:51:49;;;;;;;2.25;1.30;;;20.30;99.90;;;;;;5039887;28;20223;-70
2022/07/13 06:54:15;;;;;;;1.10;1.00;;;20.30;99.90;;;;;;5052623;28;20218;-71
2022/07/13 06:56:42;;;;;;;2.33;0.80;;;20.40;99.90;;;;;;5054221;28;20214;-70
2022/07/13 06:59:10;;;;;;;1.50;1.20;;;20.50;99.90;;;;;;5050831;28;20568;-70
2022/07/13 07:01:37;;;;;;;1.20;1.00;;;20.60;99.90;;;;;;5037338;28;20674;-70
2022/07/13 07:04:04;;;;;;;2.15;1.00;;;20.60;99.90;;;;;;5048640;28;20225;-71
2022/07/13 07:06:31;;;;;;;2.00;0.93;;;20.80;99.90;;;;;;5058747;28;20634;-70
2022/07/13 07:08:59;;;;;;;2.88;1.10;;;20.90;99.90;;;;;;5057380;28;20682;-69
2022/07/13 07:11:26;;;;;;;1.27;0.82;;;21.00;99.90;;;;;;5052630;28;20218;-69
2022/07/13 07:13:53;;;;;;;1.88;0.80;;;21.20;99.90;;;;;;5053871;28;20212;-70
2022/07/13 07:16:20;;;;;;;0.73;0.60;;;21.40;99.90;;;;;;5048144;28;20202;-70
2022/07/13 07:18:47;;;;;;;3.03;1.15;;;21.60;99.90;;;;;;5043588;28;20210;-70
2022/07/13 07:21:13;;;;;;;1.02;0.90;;;21.70;99.90;;;;;;5041707;28;20202;-69
2022/07/13 07:23:40;;;;;;;2.42;0.70;;;21.90;99.90;;;;;;5050825;28;20209;-70
2022/07/13 07:26:08;;;;;;;0.88;0.63;;;22.10;99.90;;;;;;5049211;28;20233;-71
2022/07/13 07:28:36;;;;;;;2.33;0.93;;;22.20;99.90;;;;;;5047307;28;20213;-69
2022/07/13 07:31:03;;;;;;;3.42;1.02;;;22.40;99.90;;;;;;5042817;28;20217;-69
2022/07/13 07:33:29;;;;;;;2.80;0.70;;;22.40;99.90;;;;;;5045812;28;20226;-69
2022/07/13 07:35:56;;;;;;;3.20;0.70;;;22.60;99.90;;;;;;5047422;28;20214;-69
2022/07/13 07:38:23;;;;;;;2.35;0.98;;;22.70;99.90;;;;;;5050413;28;20212;-68
2022/07/13 07:40:49;;;;;;;1.35;0.70;;;22.80;99.90;;;;;;5053285;28;20205;-69
2022/07/13 07:43:18;;;;;;;1.60;0.60;;;22.90;99.90;;;;;;5051919;28;20214;-69
2022/07/13 07:45:44;;;;;;;0.80;0.70;;;23.00;99.90;;;;;;5053172;28;20718;-69
2022/07/13 07:48:11;;;;;;;3.20;0.77;;;23.00;99.90;;;;;;5053063;28;20202;-68
2022/07/13 07:50:38;;;;;;;3.03;0.75;;;23.10;99.90;;;;;;5051872;28;20214;-68
2022/07/13 07:53:04;;;;;;;2.35;0.63;;;23.30;99.90;;;;;;5052505;28;20234;-68
2022/07/13 07:55:31;;;;;;;1.90;0.80;;;23.30;99.90;;;;;;5053159;28;20216;-69
2022/07/13 07:57:58;;;;;;;2.22;0.80;;;23.40;99.90;;;;;;5052920;28;20712;-68
2022/07/13 08:00:26;;;;;;;1.23;1.00;;;23.40;99.80;;;;;;5053044;28;20212;-69
2022/07/13 08:02:53;;;;;;;2.67;0.60;;;23.50;99.40;;;;;;5050334;28;20210;-69
2022/07/13 08:05:20;;;;;;;3.08;0.63;;;23.70;98.90;;;;;;5051195;28;20228;-69
2022/07/13 08:07:48;;;;;;;1.35;0.70;;;23.70;98.00;;;;;;5052173;28;20677;-69
2022/07/13 08:10:16;;;;;;;4.20;1.63;;;23.80;96.80;;;;;;5056706;28;20210;-68
2022/07/13 08:12:42;;;;;;;1.58;0.75;;;23.80;95.80;;;;;;5055442;28;20745;-69
2022/07/13 08:15:09;;;;;;;2.03;0.70;;;23.90;95.20;;;;;;5057145;28;20212;-70
2022/07/13 08:17:39;;;;;;;1.10;0.60;;;24.00;94.70;;;;;;5057804;28;20210;-68
2022/07/13 08:20:06;;;;;;;3.45;0.80;;;24.10;94.40;;;;;;5053608;28;20206;-68
2022/07/13 08:22:33;;;;;;;1.17;0.65;;;24.20;94.30;;;;;;5053200;28;20205;-69
2022/07/13 08:25:00;;;;;;;0.95;0.75;;;24.30;93.70;;;;;;5056939;28;20222;-69
2022/07/13 08:27:27;;;;;;;1.75;0.93;;;24.40;93.10;;;;;;5056658;28;20574;-69
2022/07/13 08:29:54;;;;;;;6.03;1.02;;;24.50;92.10;;;;;;5056597;28;20210;-69
2022/07/13 08:32:21;;;;;;;1.65;0.63;;;24.60;91.80;;;;;;5054753;28;20222;-68
2022/07/13 08:40:20;;;;;;;3.13;0.63;;;24.90;91.70;;;;;;5054686;28;20279;-69
2022/07/13 08:42:47;;;;;;;3.17;0.85;;;25.00;91.00;;;;;;5055924;28;20213;-69
2022/07/13 08:45:14;;;;;;;2.85;0.63;;;25.00;90.70;;;;;;5044205;28;20210;-69
2022/07/13 08:47:43;;;;;;;2.65;0.80;;;25.10;90.50;;;;;;5054012;28;20209;-69
2022/07/13 08:50:11;;;;;;;2.58;0.80;;;25.20;90.30;;;;;;5055335;28;20216;-68
2022/07/13 08:52:39;;;;;;;3.63;1.08;;;25.20;90.20;;;;;;5055989;28;20222;-69
2022/07/13 08:55:08;;;;;;;1.65;0.50;;;25.40;90.00;;;;;;5055280;28;20674;-68
2022/07/13 08:57:36;;;;;;;1.75;0.75;;;25.40;88.90;;;;;;5047048;28;20234;-70
2022/07/13 09:00:06;;;;;;;6.18;0.85;;;25.40;88.70;;;;;;5054473;28;20553;-69
2022/07/13 09:02:33;;;;;;;0.60;0.60;;;25.50;88.70;;;;;;5054509;28;20772;-69
2022/07/13 09:05:03;;;;;;;2.33;0.60;;;25.50;87.30;;;;;;5054921;28;20309;-68
2022/07/13 09:07:31;;;;;;;1.00;0.65;;;25.60;87.20;;;;;;5050743;28;20213;-69
2022/07/13 09:09:58;;;;;;;0.60;0.57;;;25.70;86.70;;;;;;5047946;28;20576;-68
2022/07/13 09:12:26;;;;;;;1.17;0.43;;;25.80;85.70;;;;;;5052344;28;20246;-69
2022/07/13 09:14:54;;;;;;;0.95;0.70;;;25.90;85.50;;;;;;5056821;28;20210;-69
2022/07/13 09:17:33;;;;;;;1.25;0.82;;;26.00;84.90;;;;;;5056470;28;20578;-69
2022/07/13 09:20:04;;;;;;;1.80;0.93;;;26.00;83.70;;;;;;5052161;28;20600;-69
2022/07/13 09:22:32;;;;;;;2.97;0.90;;;26.20;83.80;;;;;;5046219;28;20229;-69
2022/07/13 09:25:00;;;;;;;3.05;0.77;;;26.20;83.30;;;;;;5055598;28;20312;-69
2022/07/13 09:27:27;;;;;;;1.40;0.60;;;26.30;82.70;;;;;;5054841;28;20214;-68
2022/07/13 09:29:54;;;;;;;0.68;0.68;;;26.30;82.00;;;;;;5046956;28;20206;-69
2022/07/13 09:32:21;;;;;;;2.78;1.00;;;26.40;81.80;;;;;;5048657;28;20685;-69
2022/07/13 09:34:52;;;;;;;0.98;0.88;;;26.50;81.50;;;;;;5055092;28;20680;-68
2022/07/13 09:37:21;;;;;;;0.85;0.60;;;26.50;81.40;;;;;;5054573;28;20201;-69
2022/07/13 09:40:06;;;;;;;3.28;0.93;;;26.70;81.50;;;;;;5054906;28;20574;-69
2022/07/13 09:42:36;;;;;;;2.55;0.80;;;26.80;80.20;;;;;;5051930;28;20198;-69
2022/07/13 09:47:51;;;;;;;1.50;0.70;;;26.90;79.00;;;;;;5055079;28;20319;-68
2022/07/13 09:50:18;;;;;;;1.60;0.80;;;26.90;78.90;;;;;;5051687;28;20761;-69
2022/07/13 09:52:46;;;;;;;3.25;1.00;;;27.00;78.50;;;;;;5051654;28;20254;-69
2022/07/13 09:55:19;;;;;;;1.02;0.82;;;27.10;78.20;;;;;;5053944;28;20241;-69
2022/07/13 09:57:48;;;;;;;2.88;0.70;;;27.10;77.90;;;;;;5054831;28;20206;-70
2022/07/13 10:00:17;;;;;;;0.70;0.57;;;27.30;77.30;;;;;;5054079;28;20221;-69
2022/07/13 10:02:47;;;;;;;5.45;0.68;;;27.30;76.60;;;;;;5047650;28;20263;-69
2022/07/13 10:05:15;;;;;;;1.75;0.68;;;27.40;76.10;;;;;;5046006;28;20211;-68
2022/07/13 10:07:42;;;;;;;1.55;0.57;;;27.40;76.30;;;;;;5041093;28;20704;-68
2022/07/13 10:10:11;;;;;;;0.50;0.50;;;27.50;75.60;;;;;;5054638;28;20214;-69
2022/07/13 10:12:40;;;;;;;3.05;0.65;;;27.50;75.10;;;;;;5054733;28;20226;-69
2022/07/13 10:15:08;;;;;;;0.90;0.65;;;27.50;75.50;;;;;;5054200;28;20293;-69
2022/07/13 10:17:35;;;;;;;3.53;0.70;;;27.60;75.20;;;;;;5048310;28;20198;-67
2022/07/13 10:20:09;;;;;;;0.93;0.60;;;27.70;75.30;;;;;;5054395;28;20255;-69
2022/07/13 10:22:39;;;;;;;4.78;0.85;;;27.80;75.50;;;;;;5054007;28;20197;-67
2022/07/13 10:25:07;;;;;;;2.38;0.60;;;28.00;75.30;;;;;;5054266;28;20686;-68
2022/07/13 10:27:36;;;;;;;2.72;0.95;;;28.20;75.70;;;;;;5053314;28;20212;-69
2022/07/13 10:30:07;;;;;;;1.13;0.70;;;28.40;74.20;;;;;;5054614;28;20233;-68
2022/07/13 10:32:35;;;;;;;1.42;0.70;;;28.50;74.10;;;;;;5052564;28;20245;-68
2022/07/13 10:35:05;;;;;;;1.40;0.80;;;28.70;74.10;;;;;;5050631;28;20210;-68
2022/07/13 10:38:05;;;;;;;1.95;0.80;;;28.80;73.40;;;;;;5063388;28;20213;-68
2022/07/13 10:40:33;;;;;;;1.52;1.10;;;28.90;72.80;;;;;;5040821;28;20214;-68
2022/07/13 10:43:13;;;;;;;1.63;1.08;;;28.90;73.10;;;;;;5056251;28;20202;-69
2022/07/13 10:45:44;;;;;;;1.27;0.93;;;29.00;72.90;;;;;;5053636;28;20779;-68
2022/07/13 10:48:45;;;;;;;3.42;1.10;;;29.10;73.20;;;;;;5053493;28;20202;-69
2022/07/13 10:51:22;;;;;;;1.23;1.13;;;29.10;72.30;;;;;;5052523;28;20229;-70
2022/07/13 10:54:06;;;;;;;2.30;1.05;;;29.10;72.20;;;;;;5054624;28;20555;-68
2022/07/13 10:56:33;;;;;;;6.05;1.00;;;29.10;72.10;;;;;;5052009;28;20565;-67
2022/07/13 10:59:01;;;;;;;2.00;0.93;;;29.20;72.30;;;;;;5039630;28;20228;-68
2022/07/13 11:01:48;;;;;;;1.65;0.80;;;29.20;72.30;;;;;;5053485;28;20559;-69
2022/07/13 11:04:17;;;;;;;3.42;1.38;;;29.30;71.70;;;;;;5045586;28;20651;-69
2022/07/13 11:07:04;;;;;;;1.38;0.90;;;29.30;71.20;;;;;;5046574;28;20216;-68
2022/07/13 11:09:30;;;;;;;2.88;1.02;;;29.30;71.20;;;;;;5046462;28;20673;-68
2022/07/13 11:11:58;;;;;;;3.35;1.10;;;29.40;71.10;;;;;;5047367;28;20648;-68
2022/07/13 11:14:49;;;;;;;3.40;1.33;;;29.60;70.70;;;;;;5053992;28;20226;-68
2022/07/13 11:17:19;;;;;;;4.18;0.98;;;29.70;70.20;;;;;;5052470;28;20198;-69
2022/07/13 11:20:01;;;;;;;1.30;1.10;;;29.80;69.40;;;;;;5045316;28;20297;-68
2022/07/13 11:25:13;;;;;;;1.40;0.73;;;29.80;68.80;;;;;;5048521;28;20202;-68
2022/07/13 11:25:41;;;;;;;5.68;0.70;;;29.90;69.70;;;;;;5051502;28;20232;-68
2022/07/13 11:28:30;;;;;;;3.17;0.73;;;30.10;69.10;;;;;;5053662;28;20198;-70
2022/07/13 11:30:57;;;;;;;2.88;0.90;;;30.30;68.70;;;;;;5053017;28;20638;-68
2022/07/13 11:33:25;;;;;;;2.75;0.80;;;30.40;69.00;;;;;;5051794;28;20590;-69
2022/07/13 11:35:52;;;;;;;1.85;0.80;;;30.60;69.00;;;;;;5044058;28;20297;-69
2022/07/13 11:38:20;;;;;;;2.85;0.80;;;30.60;67.20;;;;;;5049516;28;20214;-69
2022/07/13 11:40:48;;;;;;;6.13;1.08;;;30.60;65.30;;;;;;5052150;28;20236;-68
2022/07/13 11:43:15;;;;;;;2.53;1.00;;;30.50;65.00;;;;;;5052628;28;20202;-69
2022/07/13 11:45:43;;;;;;;1.58;1.02;;;30.40;64.30;;;;;;5052543;28;20234;-69
2022/07/13 11:48:13;;;;;;;1.65;0.80;;;30.40;64.30;;;;;;5052344;28;20299;-68
2022/07/13 11:50:47;;;;;;;1.42;0.80;;;30.40;64.30;;;;;;5053695;28;20209;-69
2022/07/13 11:53:31;;;;;;;3.47;1.25;;;30.40;64.20;;;;;;5053033;28;20534;-68
2022/07/13 11:56:03;;;;;;;1.55;1.15;;;30.40;63.50;;;;;;5043908;28;20602;-69
2022/07/13 11:58:32;;;;;;;2.08;1.20;;;30.40;63.90;;;;;;5046968;28;20697;-68
2022/07/13 12:01:00;;;;;;;5.57;1.40;;;30.50;63.80;;;;;;5052816;28;20727;-68
2022/07/13 12:03:32;;;;;;;4.05;1.13;;;30.50;63.90;;;;;;5053006;28;20240;-69
2022/07/13 12:06:08;;;;;;;3.17;0.98;;;30.40;64.60;;;;;;5039049;28;20206;-69
2022/07/13 12:08:37;;;;;;;1.75;1.20;;;30.40;65.20;;;;;;5051968;28;20209;-68
2022/07/13 12:11:06;;;;;;;1.23;0.75;;;30.50;66.40;;;;;;5051066;28;20205;-67
2022/07/13 12:13:34;;;;;;;2.03;0.93;;;30.70;65.00;;;;;;5052713;28;20222;-70
2022/07/13 12:16:01;;;;;;;2.33;1.20;;;30.90;64.30;;;;;;5047965;28;20213;-69
2022/07/13 12:18:28;;;;;;;4.63;1.00;;;30.80;63.90;;;;;;5043448;28;20214;-69
2022/07/13 12:20:56;;;;;;;3.13;0.90;;;30.70;64.10;;;;;;5052203;28;20228;-68
2022/07/13 12:23:24;;;;;;;1.85;0.80;;;30.60;64.60;;;;;;5052705;28;20205;-69
2022/07/13 12:26:06;;;;;;;1.85;1.00;;;30.50;64.70;;;;;;5042159;28;20565;-69
2022/07/13 12:28:33;;;;;;;4.32;1.05;;;30.50;64.40;;;;;;5042602;28;20201;-68
2022/07/13 12:31:01;;;;;;;3.33;0.95;;;30.50;64.30;;;;;;5045049;28;20210;-68
2022/07/13 12:33:44;;;;;;;2.35;1.00;;;30.50;64.20;;;;;;5051087;28;20299;-69
2022/07/13 12:36:12;;;;;;;5.00;1.58;;;30.50;63.90;;;;;;5051548;28;20673;-69
2022/07/13 12:39:01;;;;;;;1.63;1.13;;;30.40;63.50;;;;;;5049920;28;20209;-68
2022/07/13 12:41:34;;;;;;;2.60;1.20;;;30.40;62.80;;;;;;5051418;28;20213;-68
2022/07/13 12:44:02;;;;;;;2.00;0.90;;;30.20;62.60;;;;;;5051715;28;20217;-68
2022/07/13 12:46:45;;;;;;;2.70;0.98;;;30.10;62.50;;;;;;5051147;28;20700;-69
2022/07/13 12:49:12;;;;;;;3.33;1.38;;;30.10;62.50;;;;;;5042591;28;20224;-69
2022/07/13 12:52:03;;;;;;;2.35;1.05;;;30.10;63.20;;;;;;5050582;28;20700;-68
2022/07/13 12:54:48;;;;;;;3.60;1.10;;;30.20;63.50;;;;;;5051392;28;20233;-68
2022/07/13 12:57:17;;;;;;;1.92;1.02;;;30.20;63.00;;;;;;5051128;28;20195;-68
2022/07/13 12:59:58;;;;;;;2.13;1.17;;;30.10;62.40;;;;;;5046390;28;20575;-68
2022/07/13 13:02:25;;;;;;;1.20;0.95;;;30.10;62.50;;;;;;5054200;28;20210;-69
2022/07/13 13:04:51;;;;;;;4.57;1.30;;;30.10;62.40;;;;;;5055693;28;20206;-68